createdAt,value
2022-07-31T00:00:15.438Z,101239.00
2022-07-31T00:02:42.451Z,101240.00
2022-07-31T00:05:09.852Z,101250.00
2022-07-31T00:07:37.349Z,101239.00
2022-07-31T00:10:06.549Z,101244.00
2022-07-31T00:12:34.992Z,101246.00
2022-07-31T00:15:04.279Z,101242.00
2022-07-31T00:17:32.859Z,101240.00
2022-07-31T00:19:59.688Z,101245.00
2022-07-31T00:22:26.661Z,101242.00
2022-07-31T00:24:53.482Z,101247.00
2022-07-31T00:27:21.010Z,101241.00
2022-07-31T00:29:48.474Z,101236.00
2022-07-31T00:32:15.688Z,101237.00
2022-07-31T00:34:42.627Z,101241.00
2022-07-31T00:37:10.157Z,101227.00
2022-07-31T00:39:38.567Z,101239.00
2022-07-31T00:42:06.081Z,101227.00
2022-07-31T00:44:32.951Z,101225.00
2022-07-31T00:47:01.771Z,101232.00
2022-07-31T00:49:37.779Z,101233.00
2022-07-31T00:52:06.509Z,101215.00
2022-07-31T00:54:34.529Z,101222.00
2022-07-31T00:57:02.405Z,101221.00
2022-07-31T00:59:30.578Z,101212.00
2022-07-31T01:01:59.210Z,101214.00
2022-07-31T01:04:27.349Z,101219.00
2022-07-31T01:06:55.456Z,101211.00
2022-07-31T01:09:22.787Z,101208.00
2022-07-31T01:12:07.293Z,101204.00
2022-07-31T01:14:47.783Z,101209.00
2022-07-31T01:17:17.729Z,101212.00
2022-07-31T01:19:47.705Z,101216.00
2022-07-31T01:22:55.344Z,101208.00
2022-07-31T01:26:11.112Z,101203.00
2022-07-31T01:28:56.222Z,101201.00
2022-07-31T01:32:10.364Z,101209.00
2022-07-31T01:35:01.830Z,101204.00
2022-07-31T01:37:36.401Z,101209.00
2022-07-31T01:40:10.072Z,101212.00
2022-07-31T01:42:40.308Z,101209.00
2022-07-31T01:45:10.929Z,101209.00
2022-07-31T01:47:39.858Z,101215.00
2022-07-31T01:50:09.497Z,101217.00
2022-07-31T01:52:59.620Z,101210.00
2022-07-31T01:55:28.890Z,101207.00
2022-07-31T01:57:56.733Z,101207.00
2022-07-31T02:00:34.402Z,101209.00
2022-07-31T02:03:09.968Z,101205.00
2022-07-31T02:05:42.110Z,101211.00
2022-07-31T02:08:11.376Z,101211.00
2022-07-31T02:10:40.493Z,101221.00
2022-07-31T02:13:08.040Z,101208.00
2022-07-31T02:15:35.983Z,101205.00
2022-07-31T02:18:04.281Z,101204.00
2022-07-31T02:20:33.272Z,101205.00
2022-07-31T02:23:01.517Z,101198.00
2022-07-31T02:25:29.632Z,101198.00
2022-07-31T02:28:01.042Z,101193.00
2022-07-31T02:30:38.318Z,101198.00
2022-07-31T02:33:12.850Z,101203.00
2022-07-31T02:35:44.277Z,101199.00
2022-07-31T02:38:22.145Z,101206.00
2022-07-31T02:40:55.132Z,101207.00
2022-07-31T02:43:22.668Z,101195.00
2022-07-31T02:45:49.700Z,101193.00
2022-07-31T02:48:17.491Z,101203.00
2022-07-31T02:50:45.236Z,101205.00
2022-07-31T02:53:12.478Z,101206.00
2022-07-31T02:55:40.544Z,101197.00
2022-07-31T02:58:08.977Z,101202.00
2022-07-31T03:00:35.850Z,101209.00
2022-07-31T03:03:03.124Z,101201.00
2022-07-31T03:05:31.329Z,101198.00
2022-07-31T03:07:58.433Z,101192.00
2022-07-31T03:10:25.605Z,101191.00
2022-07-31T03:12:54.935Z,101188.00
2022-07-31T03:15:26.851Z,101186.00
2022-07-31T03:17:54.939Z,101187.00
2022-07-31T03:20:22.423Z,101191.00
2022-07-31T03:22:50.386Z,101180.00
2022-07-31T03:25:20.276Z,101173.00
2022-07-31T03:27:56.727Z,101173.00
2022-07-31T03:30:25.460Z,101163.00
2022-07-31T03:32:54.500Z,101167.00
2022-07-31T03:35:22.508Z,101173.00
2022-07-31T03:37:49.686Z,101164.00
2022-07-31T03:40:16.471Z,101158.00
2022-07-31T03:42:44.501Z,101165.00
2022-07-31T03:45:14.238Z,101165.00
2022-07-31T03:47:41.245Z,101165.00
2022-07-31T03:50:09.255Z,101167.00
2022-07-31T03:52:37.014Z,101165.00
2022-07-31T03:55:04.401Z,101151.00
2022-07-31T03:57:34.307Z,101172.00
2022-07-31T04:00:03.276Z,101170.00
2022-07-31T04:02:31.787Z,101179.00
2022-07-31T04:04:59.856Z,101185.00
2022-07-31T04:07:27.600Z,101177.00
2022-07-31T04:09:54.734Z,101176.00
2022-07-31T04:12:21.621Z,101176.00
2022-07-31T04:14:48.944Z,101174.00
2022-07-31T04:17:15.769Z,101175.00
2022-07-31T04:19:42.633Z,101180.00
2022-07-31T04:22:09.696Z,101180.00
2022-07-31T04:24:36.616Z,101183.00
2022-07-31T04:27:08.184Z,101179.00
2022-07-31T04:29:38.031Z,101170.00
2022-07-31T04:32:05.451Z,101178.00
2022-07-31T04:34:32.650Z,101179.00
2022-07-31T04:36:59.526Z,101189.00
2022-07-31T04:39:26.352Z,101195.00
2022-07-31T04:41:53.379Z,101185.00
2022-07-31T04:44:20.947Z,101189.00
2022-07-31T04:46:48.019Z,101194.00
2022-07-31T04:49:15.244Z,101193.00
2022-07-31T04:51:44.554Z,101193.00
2022-07-31T04:54:11.727Z,101195.00
2022-07-31T04:56:44.767Z,101188.00
2022-07-31T04:59:15.036Z,101194.00
2022-07-31T05:01:43.586Z,101186.00
2022-07-31T05:04:11.571Z,101186.00
2022-07-31T05:06:48.250Z,101184.00
2022-07-31T05:09:19.678Z,101186.00
2022-07-31T05:11:52.882Z,101188.00
2022-07-31T05:14:21.601Z,101193.00
2022-07-31T05:16:48.934Z,101199.00
2022-07-31T05:19:16.552Z,101196.00
2022-07-31T05:21:46.928Z,101188.00
2022-07-31T05:24:32.604Z,101200.00
2022-07-31T05:27:02.628Z,101205.00
2022-07-31T05:29:30.797Z,101201.00
2022-07-31T05:32:09.813Z,101202.00
2022-07-31T05:34:36.990Z,101201.00
2022-07-31T05:37:03.882Z,101200.00
2022-07-31T05:39:31.297Z,101190.00
2022-07-31T05:41:58.160Z,101193.00
2022-07-31T05:44:24.980Z,101191.00
2022-07-31T05:49:19.500Z,101196.00
2022-07-31T05:51:46.964Z,101197.00
2022-07-31T05:54:14.655Z,101203.00
2022-07-31T05:56:42.859Z,101204.00
2022-07-31T05:59:09.916Z,101213.00
2022-07-31T06:01:38.791Z,101209.00
2022-07-31T06:04:05.697Z,101213.00
2022-07-31T06:06:32.437Z,101225.00
2022-07-31T06:09:04.116Z,101221.00
2022-07-31T06:11:31.723Z,101218.00
2022-07-31T06:13:58.557Z,101227.00
2022-07-31T06:16:25.366Z,101222.00
2022-07-31T06:18:52.541Z,101210.00
2022-07-31T06:23:45.081Z,101222.00
2022-07-31T06:26:12.271Z,101220.00
2022-07-31T06:28:48.084Z,101213.00
2022-07-31T06:31:25.451Z,101217.00
2022-07-31T06:33:52.719Z,101214.00
2022-07-31T06:36:19.788Z,101217.00
2022-07-31T06:38:46.612Z,101208.00
2022-07-31T06:41:32.691Z,101218.00
2022-07-31T06:43:59.531Z,101214.00
2022-07-31T06:46:26.369Z,101221.00
2022-07-31T06:48:53.379Z,101218.00
2022-07-31T06:51:30.761Z,101218.00
2022-07-31T06:54:00.356Z,101214.00
2022-07-31T06:56:28.047Z,101219.00
2022-07-31T06:58:55.330Z,101213.00
2022-07-31T07:01:22.296Z,101211.00
2022-07-31T07:03:50.490Z,101212.00
2022-07-31T07:06:18.101Z,101205.00
2022-07-31T07:08:45.068Z,101209.00
2022-07-31T07:11:12.519Z,101219.00
2022-07-31T07:13:45.695Z,101216.00
2022-07-31T07:16:15.198Z,101204.00
2022-07-31T07:18:43.231Z,101194.00
2022-07-31T07:21:10.904Z,101206.00
2022-07-31T07:23:37.998Z,101205.00
2022-07-31T07:26:05.891Z,101208.00
2022-07-31T07:28:34.155Z,101199.00
2022-07-31T07:31:02.640Z,101201.00
2022-07-31T07:33:39.738Z,101194.00
2022-07-31T07:36:07.363Z,101196.00
2022-07-31T07:38:34.161Z,101190.00
2022-07-31T07:41:02.605Z,101188.00
2022-07-31T07:43:29.481Z,101186.00
2022-07-31T07:45:56.300Z,101190.00
2022-07-31T07:48:23.132Z,101174.00
2022-07-31T07:50:49.970Z,101175.00
2022-07-31T07:53:16.768Z,101167.00
2022-07-31T07:55:43.661Z,101176.00
2022-07-31T07:58:12.150Z,101174.00
2022-07-31T08:00:39.940Z,101179.00
2022-07-31T08:03:49.497Z,101174.00
2022-07-31T08:05:54.951Z,101174.00
2022-07-31T08:08:21.810Z,101164.00
2022-07-31T08:10:48.741Z,101176.00
2022-07-31T08:13:15.578Z,101174.00
2022-07-31T08:15:42.402Z,101174.00
2022-07-31T08:18:09.241Z,101168.00
2022-07-31T08:20:38.162Z,101171.00
2022-07-31T08:23:04.954Z,101171.00
2022-07-31T08:25:32.105Z,101164.00
2022-07-31T08:27:59.105Z,101172.00
2022-07-31T08:30:30.901Z,101169.00
2022-07-31T08:32:58.182Z,101172.00
2022-07-31T08:35:26.167Z,101174.00
2022-07-31T08:38:03.402Z,101181.00
2022-07-31T08:40:33.549Z,101179.00
2022-07-31T08:43:30.996Z,101179.00
2022-07-31T08:46:02.953Z,101166.00
2022-07-31T08:48:33.321Z,101167.00
2022-07-31T08:51:04.178Z,101163.00
2022-07-31T08:53:34.706Z,101162.00
2022-07-31T08:56:03.276Z,101158.00
2022-07-31T08:58:30.190Z,101154.00
2022-07-31T09:00:57.381Z,101154.00
2022-07-31T09:03:24.706Z,101152.00
2022-07-31T09:05:51.578Z,101154.00
2022-07-31T09:08:18.566Z,101158.00
2022-07-31T09:10:49.938Z,101164.00
2022-07-31T09:13:19.984Z,101149.00
2022-07-31T09:15:46.981Z,101142.00
2022-07-31T09:18:22.226Z,101148.00
2022-07-31T09:21:00.658Z,101139.00
2022-07-31T09:23:30.379Z,101142.00
2022-07-31T09:26:00.666Z,101139.00
2022-07-31T09:28:39.078Z,101137.00
2022-07-31T09:31:08.476Z,101133.00
2022-07-31T09:33:42.360Z,101129.00
2022-07-31T09:36:14.106Z,101136.00
2022-07-31T09:38:43.429Z,101128.00
2022-07-31T09:41:56.282Z,101135.00
2022-07-31T09:44:10.506Z,101123.00
2022-07-31T09:46:43.542Z,101126.00
2022-07-31T09:49:10.832Z,101121.00
2022-07-31T09:51:43.364Z,101119.00
2022-07-31T09:54:25.957Z,101135.00
2022-07-31T09:56:53.173Z,101122.00
2022-07-31T09:59:20.203Z,101119.00
2022-07-31T10:01:49.270Z,101114.00
2022-07-31T10:04:21.449Z,101111.00
2022-07-31T10:06:50.744Z,101115.00
2022-07-31T10:09:20.956Z,101119.00
2022-07-31T10:11:50.252Z,101113.00
2022-07-31T10:14:29.053Z,101107.00
2022-07-31T10:16:59.995Z,101115.00
2022-07-31T10:19:32.058Z,101110.00
2022-07-31T10:22:04.507Z,101110.00
2022-07-31T10:24:43.292Z,101099.00
2022-07-31T10:27:12.417Z,101101.00
2022-07-31T10:29:40.102Z,101111.00
2022-07-31T10:32:09.070Z,101111.00
2022-07-31T10:34:37.078Z,101100.00
2022-07-31T10:37:15.421Z,101085.00
2022-07-31T10:40:06.786Z,101104.00
2022-07-31T10:43:15.558Z,101086.00
2022-07-31T10:45:51.986Z,101089.00
2022-07-31T10:48:20.226Z,101081.00
2022-07-31T10:50:48.186Z,101074.00
2022-07-31T10:53:18.590Z,101080.00
2022-07-31T10:55:45.518Z,101074.00
2022-07-31T10:58:16.456Z,101080.00
2022-07-31T11:00:43.891Z,101071.00
2022-07-31T11:03:20.666Z,101079.00
2022-07-31T11:06:01.746Z,101080.00
2022-07-31T11:08:45.289Z,101081.00
2022-07-31T11:11:14.002Z,101077.00
2022-07-31T11:13:55.385Z,101079.00
2022-07-31T11:16:22.614Z,101074.00
2022-07-31T11:19:10.137Z,101067.00
2022-07-31T11:21:40.796Z,101070.00
2022-07-31T11:24:21.783Z,101064.00
2022-07-31T11:26:58.937Z,101069.00
2022-07-31T11:29:58.943Z,101062.00
2022-07-31T11:32:25.491Z,101072.00
2022-07-31T11:34:56.024Z,101069.00
2022-07-31T11:37:56.661Z,101073.00
2022-07-31T11:40:22.436Z,101078.00
2022-07-31T11:43:24.250Z,101067.00
2022-07-31T11:45:51.367Z,101067.00
2022-07-31T11:48:20.769Z,101061.00
2022-07-31T11:50:49.947Z,101063.00
2022-07-31T11:53:18.699Z,101059.00
2022-07-31T11:55:57.200Z,101056.00
2022-07-31T11:58:27.934Z,101054.00
2022-07-31T12:00:58.500Z,101048.00
2022-07-31T12:03:38.079Z,101053.00
2022-07-31T12:06:11.175Z,101042.00
2022-07-31T12:08:39.509Z,101042.00
2022-07-31T12:11:09.457Z,101032.00
2022-07-31T12:13:38.544Z,101032.00
2022-07-31T12:16:10.785Z,101039.00
2022-07-31T12:18:58.714Z,101038.00
2022-07-31T12:21:40.793Z,101027.00
2022-07-31T12:24:13.663Z,101027.00
2022-07-31T12:26:50.593Z,101034.00
2022-07-31T12:29:17.966Z,101021.00
2022-07-31T12:31:50.139Z,101030.00
2022-07-31T12:34:41.154Z,101030.00
2022-07-31T12:37:14.849Z,101030.00
2022-07-31T12:39:59.268Z,101035.00
2022-07-31T12:42:41.581Z,101025.00
2022-07-31T12:45:20.178Z,101025.00
2022-07-31T12:47:52.123Z,101035.00
2022-07-31T12:50:20.801Z,101024.00
2022-07-31T12:52:47.679Z,101029.00
2022-07-31T12:55:17.155Z,101024.00
2022-07-31T12:57:51.142Z,101018.00
2022-07-31T13:00:24.025Z,101016.00
2022-07-31T13:02:55.867Z,101017.00
2022-07-31T13:05:24.574Z,101018.00
2022-07-31T13:07:52.282Z,101012.00
2022-07-31T13:10:23.921Z,101002.00
2022-07-31T13:12:52.774Z,100996.00
2022-07-31T13:15:30.169Z,100997.00
2022-07-31T13:18:05.198Z,100992.00
2022-07-31T13:20:32.316Z,100988.00
2022-07-31T13:22:59.509Z,100985.00
2022-07-31T13:25:28.792Z,100985.00
2022-07-31T13:27:57.020Z,100989.00
2022-07-31T13:30:23.862Z,100972.00
2022-07-31T13:32:50.730Z,100974.00
2022-07-31T13:35:23.981Z,100973.00
2022-07-31T13:37:55.024Z,100981.00
2022-07-31T13:40:42.044Z,100974.00
2022-07-31T13:43:09.508Z,100969.00
2022-07-31T13:45:36.661Z,100961.00
2022-07-31T13:48:08.972Z,100960.00
2022-07-31T13:50:40.306Z,100967.00
2022-07-31T13:53:07.987Z,100966.00
2022-07-31T13:55:35.420Z,100953.00
2022-07-31T13:58:02.367Z,100952.00
2022-07-31T14:00:30.335Z,100946.00
2022-07-31T14:02:58.231Z,100946.00
2022-07-31T14:05:27.645Z,100945.00
2022-07-31T14:07:55.844Z,100938.00
2022-07-31T14:10:23.795Z,100935.00
2022-07-31T14:12:51.385Z,100939.00
2022-07-31T14:15:18.403Z,100946.00
2022-07-31T14:17:45.987Z,100947.00
2022-07-31T14:20:13.783Z,100932.00
2022-07-31T14:22:42.189Z,100933.00
2022-07-31T14:25:10.374Z,100933.00
2022-07-31T14:27:38.731Z,100930.00
2022-07-31T14:30:09.379Z,100916.00
2022-07-31T14:32:36.592Z,100914.00
2022-07-31T14:35:08.102Z,100919.00
2022-07-31T14:37:35.428Z,100921.00
2022-07-31T14:40:02.687Z,100914.00
2022-07-31T14:42:29.698Z,100925.00
2022-07-31T14:44:58.782Z,100911.00
2022-07-31T14:47:26.057Z,100909.00
2022-07-31T14:50:09.606Z,100917.00
2022-07-31T14:52:39.701Z,100904.00
2022-07-31T14:55:07.362Z,100901.00
2022-07-31T14:57:34.500Z,100913.00
2022-07-31T15:00:01.503Z,100916.00
2022-07-31T15:02:28.511Z,100917.00
2022-07-31T15:04:55.628Z,100901.00
2022-07-31T15:07:43.947Z,100911.00
2022-07-31T15:10:11.408Z,100898.00
2022-07-31T15:12:38.889Z,100912.00
2022-07-31T15:15:07.683Z,100907.00
2022-07-31T15:17:34.631Z,100912.00
2022-07-31T15:20:01.683Z,100905.00
2022-07-31T15:22:28.957Z,100906.00
2022-07-31T15:24:55.823Z,100909.00
2022-07-31T15:27:22.773Z,100895.00
2022-07-31T15:30:04.615Z,100896.00
2022-07-31T15:32:40.012Z,100902.00
2022-07-31T15:35:11.305Z,100895.00
2022-07-31T15:37:40.630Z,100902.00
2022-07-31T15:40:10.923Z,100888.00
2022-07-31T15:42:41.657Z,100902.00
2022-07-31T15:45:13.730Z,100898.00
2022-07-31T15:47:42.128Z,100897.00
2022-07-31T15:50:13.131Z,100896.00
2022-07-31T15:52:41.492Z,100890.00
2022-07-31T15:55:10.077Z,100896.00
2022-07-31T15:57:37.034Z,100895.00
2022-07-31T16:00:06.842Z,100887.00
2022-07-31T16:02:33.684Z,100893.00
2022-07-31T16:05:11.244Z,100889.00
2022-07-31T16:08:29.337Z,100899.00
2022-07-31T16:10:34.251Z,100901.00
2022-07-31T16:13:01.375Z,100890.00
2022-07-31T16:15:28.241Z,100894.00
2022-07-31T16:17:55.281Z,100890.00
2022-07-31T16:20:26.986Z,100894.00
2022-07-31T16:23:01.610Z,100892.00
2022-07-31T16:25:32.150Z,100890.00
2022-07-31T16:28:04.043Z,100888.00
2022-07-31T16:30:32.126Z,100882.00
2022-07-31T16:32:59.100Z,100884.00
2022-07-31T16:35:26.356Z,100882.00
2022-07-31T16:37:54.996Z,100879.00
2022-07-31T16:40:30.204Z,100885.00
2022-07-31T16:43:49.365Z,100872.00
2022-07-31T16:45:55.300Z,100873.00
2022-07-31T16:48:22.647Z,100867.00
2022-07-31T16:50:54.448Z,100866.00
2022-07-31T16:54:10.483Z,100868.00
2022-07-31T16:56:15.636Z,100870.00
2022-07-31T16:58:43.974Z,100871.00
2022-07-31T17:01:56.944Z,100874.00
2022-07-31T17:04:03.510Z,100871.00
2022-07-31T17:06:36.057Z,100871.00
2022-07-31T17:09:17.509Z,100868.00
2022-07-31T17:11:51.333Z,100855.00
2022-07-31T17:14:19.643Z,100860.00
2022-07-31T17:16:49.542Z,100869.00
2022-07-31T17:19:41.203Z,100864.00
2022-07-31T17:22:11.349Z,100868.00
2022-07-31T17:24:39.454Z,100858.00
2022-07-31T17:27:08.926Z,100867.00
2022-07-31T17:29:37.948Z,100860.00
2022-07-31T17:32:05.894Z,100869.00
2022-07-31T17:34:33.534Z,100864.00
2022-07-31T17:37:00.348Z,100864.00
2022-07-31T17:39:30.797Z,100863.00
2022-07-31T17:41:59.304Z,100861.00
2022-07-31T17:44:26.234Z,100866.00
2022-07-31T17:46:54.412Z,100863.00
2022-07-31T17:49:21.488Z,100857.00
2022-07-31T17:51:58.740Z,100864.00
2022-07-31T17:54:31.695Z,100863.00
2022-07-31T17:56:59.913Z,100863.00
2022-07-31T17:59:27.647Z,100867.00
2022-07-31T18:02:00.167Z,100859.00
2022-07-31T18:04:29.493Z,100864.00
2022-07-31T18:06:58.117Z,100864.00
2022-07-31T18:09:25.649Z,100869.00
2022-07-31T18:11:54.458Z,100866.00
2022-07-31T18:14:24.507Z,100859.00
2022-07-31T18:16:52.533Z,100870.00
2022-07-31T18:19:21.339Z,100860.00
2022-07-31T18:21:48.559Z,100862.00
2022-07-31T18:24:15.538Z,100869.00
2022-07-31T18:26:42.560Z,100860.00
2022-07-31T18:29:09.326Z,100872.00
2022-07-31T18:31:36.416Z,100868.00
2022-07-31T18:34:05.238Z,100866.00
2022-07-31T18:36:35.446Z,100869.00
2022-07-31T18:39:03.990Z,100864.00
2022-07-31T18:41:31.555Z,100869.00
2022-07-31T18:43:58.437Z,100864.00
2022-07-31T18:46:26.217Z,100865.00
2022-07-31T18:48:55.768Z,100862.00
2022-07-31T18:51:23.913Z,100864.00
2022-07-31T18:53:51.912Z,100873.00
2022-07-31T18:56:25.560Z,100871.00
2022-07-31T18:58:54.292Z,100868.00
2022-07-31T19:01:22.384Z,100870.00
2022-07-31T19:03:50.050Z,100873.00
2022-07-31T19:06:17.528Z,100869.00
2022-07-31T19:08:44.675Z,100864.00
2022-07-31T19:11:12.259Z,100869.00
2022-07-31T19:13:39.113Z,100879.00
2022-07-31T19:16:06.711Z,100875.00
2022-07-31T19:18:34.127Z,100878.00
2022-07-31T19:21:22.670Z,100881.00
2022-07-31T19:23:49.094Z,100871.00
2022-07-31T19:26:16.353Z,100875.00
2022-07-31T19:28:43.520Z,100882.00
2022-07-31T19:31:13.154Z,100883.00
2022-07-31T19:33:40.843Z,100882.00
2022-07-31T19:36:08.146Z,100879.00
2022-07-31T19:38:38.399Z,100874.00
2022-07-31T19:41:05.423Z,100881.00
2022-07-31T19:43:33.345Z,100875.00
2022-07-31T19:46:11.592Z,100873.00
2022-07-31T19:48:46.070Z,100867.00
2022-07-31T19:51:15.859Z,100865.00
2022-07-31T19:53:44.522Z,100864.00
2022-07-31T19:56:16.872Z,100858.00
2022-07-31T19:58:47.170Z,100861.00
2022-07-31T20:01:14.487Z,100857.00
2022-07-31T20:03:41.539Z,100860.00
2022-07-31T20:06:08.528Z,100867.00
2022-07-31T20:08:35.589Z,100851.00
2022-07-31T20:11:04.451Z,100857.00
2022-07-31T20:13:33.736Z,100858.00
2022-07-31T20:16:01.479Z,100860.00
2022-07-31T20:18:29.224Z,100860.00
2022-07-31T20:21:07.427Z,100854.00
2022-07-31T20:23:37.274Z,100849.00
2022-07-31T20:26:10.016Z,100850.00
2022-07-31T20:28:40.230Z,100846.00
2022-07-31T20:31:15.785Z,100844.00
2022-07-31T20:33:56.515Z,100844.00
2022-07-31T20:36:26.053Z,100836.00
2022-07-31T20:38:52.941Z,100844.00
2022-07-31T20:41:20.005Z,100833.00
2022-07-31T20:43:46.971Z,100845.00
2022-07-31T20:46:15.742Z,100849.00
2022-07-31T20:48:44.758Z,100852.00
2022-07-31T20:51:20.375Z,100837.00
2022-07-31T20:53:48.087Z,100834.00
2022-07-31T20:56:15.290Z,100837.00
2022-07-31T20:58:42.616Z,100829.00
2022-07-31T21:01:09.607Z,100832.00
2022-07-31T21:03:37.513Z,100830.00
2022-07-31T21:06:05.141Z,100818.00
2022-07-31T21:08:31.977Z,100831.00
2022-07-31T21:11:01.018Z,100831.00
2022-07-31T21:13:28.101Z,100828.00
2022-07-31T21:15:54.939Z,100820.00
2022-07-31T21:18:22.269Z,100812.00
2022-07-31T21:20:53.474Z,100818.00
2022-07-31T21:23:26.094Z,100818.00
2022-07-31T21:25:57.106Z,100816.00
2022-07-31T21:28:27.558Z,100813.00
2022-07-31T21:30:56.237Z,100810.00
2022-07-31T21:33:26.373Z,100809.00
2022-07-31T21:35:55.030Z,100806.00
2022-07-31T21:38:22.841Z,100798.00
2022-07-31T21:40:50.413Z,100797.00
2022-07-31T21:43:22.181Z,100800.00
2022-07-31T21:45:57.607Z,100802.00
2022-07-31T21:48:30.219Z,100806.00
2022-07-31T21:50:58.401Z,100813.00
2022-07-31T21:53:25.711Z,100813.00
2022-07-31T21:55:52.694Z,100804.00
2022-07-31T21:58:20.565Z,100799.00
2022-07-31T22:00:47.709Z,100799.00
2022-07-31T22:03:14.729Z,100804.00
2022-07-31T22:06:00.106Z,100801.00
2022-07-31T22:08:27.083Z,100795.00
2022-07-31T22:10:54.029Z,100785.00
2022-07-31T22:13:21.334Z,100790.00
2022-07-31T22:15:58.072Z,100784.00
2022-07-31T22:18:30.006Z,100780.00
2022-07-31T22:20:58.336Z,100771.00
2022-07-31T22:23:27.698Z,100783.00
2022-07-31T22:25:55.175Z,100776.00
2022-07-31T22:28:23.913Z,100766.00
2022-07-31T22:30:52.254Z,100775.00
2022-07-31T22:33:20.552Z,100788.00
2022-07-31T22:35:58.997Z,100781.00
2022-07-31T22:38:29.233Z,100789.00
2022-07-31T22:40:56.419Z,100803.00
2022-07-31T22:44:09.405Z,100802.00
2022-07-31T22:46:13.210Z,100812.00
2022-07-31T22:48:40.863Z,100808.00
2022-07-31T22:51:12.760Z,100808.00
2022-07-31T22:53:43.240Z,100811.00
2022-07-31T22:56:10.056Z,100807.00
2022-07-31T22:58:37.026Z,100805.00
2022-07-31T23:01:05.266Z,100808.00
2022-07-31T23:03:32.435Z,100799.00
2022-07-31T23:06:02.723Z,100810.00
2022-07-31T23:08:52.027Z,100814.00
2022-07-31T23:11:25.376Z,100824.00
2022-07-31T23:13:52.920Z,100817.00
2022-07-31T23:16:20.642Z,100819.00
2022-07-31T23:18:48.770Z,100818.00
2022-07-31T23:21:16.854Z,100820.00
2022-07-31T23:23:48.853Z,100820.00
2022-07-31T23:26:21.009Z,100825.00
2022-07-31T23:28:48.318Z,100820.00
2022-07-31T23:31:15.217Z,100825.00
2022-07-31T23:33:42.763Z,100811.00
2022-07-31T23:36:09.608Z,100822.00
2022-07-31T23:38:36.591Z,100819.00
2022-07-31T23:41:03.481Z,100823.00
2022-07-31T23:43:30.741Z,100807.00
2022-07-31T23:45:57.740Z,100816.00
2022-07-31T23:48:24.994Z,100814.00
2022-07-31T23:50:57.766Z,100811.00
2022-07-31T23:53:24.748Z,100815.00
2022-07-31T23:55:51.753Z,100806.00
2022-07-31T23:58:18.534Z,100807.00
